Time;durP1;ratioP1;P1;durP2;ratioP2;P2;SDS_P1;SDS_P2;PMS_P1;PMS_P2;Temp;Humidity;BMP_temperature;BMP_pressure;BME280_temperature;BME280_humidity;BME280_pressure;Samples;Min_cycle;Max_cycle;Signal;HPM_P1;HPM_P2
2022/01/21 00:00:41;;;;;;;;;;;2.40;99.90;;;;;;5052903;28;19921;-75
2022/01/21 00:03:06;;;;;;;;;;;1.10;99.90;;;;;;5053038;28;19925;-75
2022/01/21 00:05:32;;;;;;;;;;;1.00;99.90;;;;;;5052968;28;19924;-76
2022/01/21 00:07:58;;;;;;;;;;;1.00;99.90;;;;;;5052791;28;19936;-78
2022/01/21 00:10:23;;;;;;;;;;;1.00;99.90;;;;;;5036480;28;19963;-75
2022/01/21 00:12:52;;;;;;;;;;;0.90;99.90;;;;;;5052763;28;19921;-78
2022/01/21 00:15:18;;;;;;;;;;;0.90;99.90;;;;;;5036291;28;19932;-75
2022/01/21 00:17:43;;;;;;;;;;;3.10;99.90;;;;;;5036350;28;19928;-78
2022/01/21 00:31:05;;;;;;;;;;;1.10;99.90;;;;;;5054871;28;20330;-75
2022/01/21 00:33:31;;;;;;;;;;;1.50;99.90;;;;;;5054567;28;19920;-79
2022/01/21 00:35:58;;;;;;;;;;;2.70;99.90;;;;;;5053323;28;19940;-75
2022/01/21 00:38:26;;;;;;;;;;;1.20;99.90;;;;;;5053467;28;19963;-75
2022/01/21 00:40:51;;;;;;;;;;;-0.30;99.90;;;;;;5054585;28;19920;-75
2022/01/21 00:43:44;;;;;;;;;;;3.40;99.90;;;;;;5053449;28;19932;-80
2022/01/21 00:46:05;;;;;;;;;;;2.00;99.90;;;;;;5053671;28;20334;-75
2022/01/21 00:48:31;;;;;;;;;;;1.30;99.90;;;;;;5069752;28;19970;-75
2022/01/21 00:50:56;;;;;;;;;;;1.80;99.90;;;;;;5054173;28;19963;-78
2022/01/21 00:53:22;;;;;;;;;;;1.30;99.90;;;;;;5054383;28;20280;-75
2022/01/21 00:55:48;;;;;;;;;;;1.30;99.90;;;;;;5054369;28;20279;-74
2022/01/21 00:58:13;;;;;;;;;;;0.60;99.90;;;;;;5054219;28;19971;-74
2022/01/21 01:00:39;;;;;;;;;;;1.70;99.90;;;;;;5086652;28;19921;-75
2022/01/21 01:03:05;;;;;;;;;;;1.20;99.90;;;;;;5054086;28;19921;-77
2022/01/21 01:05:30;;;;;;;;;;;1.00;99.90;;;;;;5053905;28;19921;-75
2022/01/21 01:07:58;;;;;;;;;;;1.10;99.90;;;;;;5054048;28;19921;-75
2022/01/21 01:10:40;;;;;;;;;;;1.80;99.90;;;;;;5054043;28;19921;-76
2022/01/21 01:21:19;;;;;;;;;;;2.70;99.90;;;;;;5053800;28;20029;-75
2022/01/21 01:29:13;;;;;;;;;;;1.00;99.90;;;;;;5053342;28;20364;-76
2022/01/21 01:31:38;;;;;;;;;;;0.90;99.90;;;;;;5052218;28;19928;-75
2022/01/21 01:34:04;;;;;;;;;;;0.90;99.90;;;;;;5053617;28;19920;-75
2022/01/21 01:36:30;;;;;;;;;;;2.60;99.90;;;;;;5053654;28;20288;-75
2022/01/21 01:39:11;;;;;;;;;;;0.80;99.90;;;;;;5053446;28;19920;-75
2022/01/21 01:41:41;;;;;;;;;;;2.00;99.90;;;;;;5053748;28;19924;-75
2022/01/21 01:49:38;;;;;;;;;;;0.90;99.90;;;;;;5053414;28;19928;-78
2022/01/21 01:52:13;;;;;;;;;;;1.10;99.90;;;;;;5053409;28;19920;-78
2022/01/21 01:54:41;;;;;;;;;;;1.20;99.90;;;;;;5053575;28;19920;-76
2022/01/21 01:57:06;;;;;;;;;;;2.10;99.90;;;;;;5053939;28;19927;-75
2022/01/21 01:59:32;;;;;;;;;;;1.10;99.90;;;;;;5057448;28;19920;-76
2022/01/21 02:01:59;;;;;;;;;;;2.50;99.90;;;;;;5057727;28;19921;-75
2022/01/21 02:04:25;;;;;;;;;;;2.30;99.90;;;;;;5056374;28;19927;-76
2022/01/21 02:06:51;;;;;;;;;;;1.00;99.90;;;;;;5057442;28;19934;-75
2022/01/21 02:09:17;;;;;;;;;;;1.70;99.90;;;;;;5057402;28;19928;-75
2022/01/21 02:11:43;;;;;;;;;;;2.30;99.90;;;;;;5057305;28;19975;-78
2022/01/21 02:14:13;;;;;;;;;;;1.20;99.90;;;;;;5057172;28;20019;-75
2022/01/21 02:17:12;;;;;;;;;;;1.20;99.90;;;;;;5089872;28;19967;-75
2022/01/21 02:22:16;;;;;;;;;;;1.20;99.90;;;;;;5057247;28;19920;-75
2022/01/21 02:25:15;;;;;;;;;;;1.30;99.90;;;;;;5057018;28;20383;-77
2022/01/21 02:27:30;;;;;;;;;;;1.80;99.90;;;;;;5056519;28;19924;-79
2022/01/21 02:30:02;;;;;;;;;;;2.30;99.90;;;;;;5056479;28;19928;-76
2022/01/21 02:32:27;;;;;;;;;;;1.40;99.90;;;;;;5056975;28;19978;-79
2022/01/21 02:34:53;;;;;;;;;;;1.40;99.90;;;;;;5056978;28;19920;-75
2022/01/21 02:37:20;;;;;;;;;;;1.40;99.90;;;;;;5056854;28;20326;-75
2022/01/21 02:39:46;;;;;;;;;;;2.10;99.90;;;;;;5056661;28;19921;-75
2022/01/21 02:42:12;;;;;;;;;;;1.70;99.90;;;;;;5088947;28;19924;-75
2022/01/21 02:44:39;;;;;;;;;;;1.20;99.90;;;;;;5056689;28;20378;-75
2022/01/21 02:47:05;;;;;;;;;;;2.50;99.90;;;;;;5055366;28;19920;-75
2022/01/21 02:49:30;;;;;;;;;;;1.30;99.90;;;;;;5056614;28;19921;-76
2022/01/21 02:51:57;;;;;;;;;;;3.30;99.90;;;;;;5056622;28;19974;-75
2022/01/21 02:54:23;;;;;;;;;;;0.00;99.90;;;;;;5056490;28;19920;-74
2022/01/21 02:56:48;;;;;;;;;;;2.80;99.90;;;;;;5056279;28;19935;-76
2022/01/21 02:59:14;;;;;;;;;;;1.70;99.90;;;;;;5056464;28;19928;-77
2022/01/21 03:01:41;;;;;;;;;;;1.20;99.90;;;;;;5056537;28;19920;-76
2022/01/21 03:04:08;;;;;;;;;;;1.20;99.90;;;;;;5056355;28;19928;-78
2022/01/21 03:06:35;;;;;;;;;;;2.60;99.90;;;;;;5056264;28;19947;-75
2022/01/21 03:09:03;;;;;;;;;;;3.00;99.90;;;;;;5054776;28;19976;-76
2022/01/21 03:11:28;;;;;;;;;;;3.00;99.90;;;;;;5056041;28;19928;-80
2022/01/21 03:13:54;;;;;;;;;;;3.20;99.90;;;;;;5055873;28;20368;-78
2022/01/21 03:16:20;;;;;;;;;;;1.00;99.90;;;;;;5055984;28;19921;-75
2022/01/21 03:18:46;;;;;;;;;;;1.20;99.90;;;;;;5056150;28;19921;-75
2022/01/21 03:21:16;;;;;;;;;;;1.50;99.90;;;;;;5088942;28;20190;-76
2022/01/21 03:23:43;;;;;;;;;;;2.40;99.90;;;;;;5055888;28;19967;-75
2022/01/21 03:26:09;;;;;;;;;;;2.70;99.90;;;;;;5055811;28;19966;-74
2022/01/21 03:28:34;;;;;;;;;;;1.10;99.90;;;;;;5055705;28;20310;-75
2022/01/21 03:31:00;;;;;;;;;;;2.80;99.90;;;;;;5055679;28;19971;-77
2022/01/21 03:33:26;;;;;;;;;;;1.00;99.90;;;;;;5054832;28;20292;-77
2022/01/21 03:35:53;;;;;;;;;;;1.00;99.90;;;;;;5055013;28;19921;-74
2022/01/21 03:38:19;;;;;;;;;;;1.00;99.90;;;;;;5088401;28;20015;-75
2022/01/21 03:40:45;;;;;;;;;;;-0.80;99.90;;;;;;5088094;28;19924;-75
2022/01/21 03:43:12;;;;;;;;;;;2.70;99.90;;;;;;5054901;28;19970;-75
2022/01/21 03:45:38;;;;;;;;;;;1.00;99.90;;;;;;5055575;28;19971;-75
2022/01/21 03:48:04;;;;;;;;;;;2.30;99.90;;;;;;5055535;28;19928;-75
2022/01/21 03:50:32;;;;;;;;;;;1.10;99.90;;;;;;5054605;28;19921;-80
2022/01/21 03:52:59;;;;;;;;;;;2.80;99.90;;;;;;5055411;28;19920;-75
2022/01/21 03:55:24;;;;;;;;;;;1.10;99.90;;;;;;5055333;28;19921;-76
2022/01/21 03:57:50;;;;;;;;;;;1.20;99.90;;;;;;5055205;28;19966;-75
2022/01/21 04:00:18;;;;;;;;;;;2.70;99.90;;;;;;5055378;28;20360;-76
2022/01/21 04:02:44;;;;;;;;;;;1.30;99.90;;;;;;5055349;28;19966;-75
2022/01/21 04:05:10;;;;;;;;;;;1.20;99.90;;;;;;5055188;28;19928;-75
2022/01/21 04:07:36;;;;;;;;;;;1.30;99.90;;;;;;5055027;28;19921;-76
2022/01/21 04:10:01;;;;;;;;;;;3.00;99.90;;;;;;5054111;28;19924;-80
2022/01/21 04:12:27;;;;;;;;;;;2.50;99.90;;;;;;5055255;28;19928;-75
2022/01/21 04:14:53;;;;;;;;;;;1.30;99.90;;;;;;5053855;28;20371;-78
2022/01/21 04:17:18;;;;;;;;;;;2.30;99.90;;;;;;5055065;28;19921;-78
2022/01/21 04:19:44;;;;;;;;;;;1.30;99.90;;;;;;5052935;28;19991;-74
2022/01/21 04:22:09;;;;;;;;;;;1.20;99.90;;;;;;5054690;28;19924;-78
2022/01/21 04:24:36;;;;;;;;;;;1.70;99.90;;;;;;5053888;28;19984;-77
2022/01/21 04:27:02;;;;;;;;;;;-0.80;99.90;;;;;;5054575;28;19921;-75
2022/01/21 04:29:27;;;;;;;;;;;1.00;99.90;;;;;;5054772;28;19990;-75
2022/01/21 04:31:53;;;;;;;;;;;1.00;99.90;;;;;;5054699;28;20391;-75
2022/01/21 04:34:19;;;;;;;;;;;1.00;99.90;;;;;;5053492;28;19921;-75
2022/01/21 04:36:44;;;;;;;;;;;1.00;99.90;;;;;;5054598;28;19920;-75
2022/01/21 04:39:17;;;;;;;;;;;1.00;99.90;;;;;;5053532;28;19925;-75
2022/01/21 04:49:36;;;;;;;;;;;0.80;99.90;;;;;;5054287;28;19927;-75
2022/01/21 04:52:02;;;;;;;;;;;0.90;99.90;;;;;;5053219;28;19920;-75
2022/01/21 04:54:32;;;;;;;;;;;0.90;99.90;;;;;;5054150;28;19928;-75
2022/01/21 04:56:58;;;;;;;;;;;0.90;99.90;;;;;;5086897;28;19920;-77
2022/01/21 04:59:24;;;;;;;;;;;2.00;99.90;;;;;;5053259;28;20287;-76
2022/01/21 05:01:50;;;;;;;;;;;0.90;99.90;;;;;;5054119;28;19928;-78
2022/01/21 05:04:18;;;;;;;;;;;2.40;99.90;;;;;;5054065;28;19921;-75
2022/01/21 05:06:43;;;;;;;;;;;2.60;99.90;;;;;;5053987;28;19921;-79
2022/01/21 05:09:09;;;;;;;;;;;2.60;99.90;;;;;;5053121;28;19931;-76
2022/01/21 05:11:37;;;;;;;;;;;1.00;99.90;;;;;;5054128;28;19967;-75
2022/01/21 05:14:35;;;;;;;;;;;1.00;99.90;;;;;;5053985;28;19974;-78
2022/01/21 05:16:51;;;;;;;;;;;2.90;99.90;;;;;;5053677;28;19920;-75
2022/01/21 05:19:18;;;;;;;;;;;1.00;99.90;;;;;;5053847;28;19986;-75
2022/01/21 05:21:45;;;;;;;;;;;1.90;99.90;;;;;;5053662;28;19922;-75
2022/01/21 05:24:11;;;;;;;;;;;2.30;99.90;;;;;;5053965;28;19924;-75
2022/01/21 05:26:39;;;;;;;;;;;1.70;99.90;;;;;;5053766;28;20276;-75
2022/01/21 05:29:05;;;;;;;;;;;2.50;99.90;;;;;;5053940;28;19928;-80
2022/01/21 05:31:31;;;;;;;;;;;2.80;99.90;;;;;;5053350;28;19927;-75
2022/01/21 05:33:56;;;;;;;;;;;1.70;99.90;;;;;;5052661;28;20003;-75
2022/01/21 05:36:22;;;;;;;;;;;1.70;99.90;;;;;;5053482;28;19921;-75
2022/01/21 05:38:47;;;;;;;;;;;2.50;99.90;;;;;;5053995;28;19920;-75
2022/01/21 05:41:14;;;;;;;;;;;2.90;99.90;;;;;;5086338;28;19921;-77
2022/01/21 05:43:45;;;;;;;;;;;0.90;99.90;;;;;;5052583;28;19928;-76
2022/01/21 05:46:32;;;;;;;;;;;0.60;99.90;;;;;;5052643;28;20342;-77
2022/01/21 05:48:58;;;;;;;;;;;2.40;99.90;;;;;;5053400;28;19931;-76
2022/01/21 05:51:23;;;;;;;;;;;1.60;99.90;;;;;;5053622;28;19920;-78
2022/01/21 05:53:49;;;;;;;;;;;1.60;99.90;;;;;;5086186;28;19971;-75
2022/01/21 05:56:15;;;;;;;;;;;1.90;99.90;;;;;;5053492;28;19921;-77
2022/01/21 05:58:40;;;;;;;;;;;1.70;99.90;;;;;;5053398;28;19920;-75
2022/01/21 06:01:06;;;;;;;;;;;0.90;99.90;;;;;;5052359;28;20376;-75
2022/01/21 06:03:32;;;;;;;;;;;0.90;99.90;;;;;;5053268;28;20261;-76
2022/01/21 06:05:57;;;;;;;;;;;0.90;99.90;;;;;;5053254;28;19979;-76
2022/01/21 06:08:23;;;;;;;;;;;2.60;99.90;;;;;;5053408;28;19928;-75
2022/01/21 06:10:49;;;;;;;;;;;1.40;99.90;;;;;;5053434;28;20027;-77
2022/01/21 06:13:17;;;;;;;;;;;1.80;99.90;;;;;;5053357;28;19967;-75
2022/01/21 06:15:43;;;;;;;;;;;1.60;99.90;;;;;;5085697;28;19920;-75
2022/01/21 06:18:08;;;;;;;;;;;1.40;99.90;;;;;;5053238;28;19920;-79
2022/01/21 06:20:34;;;;;;;;;;;0.50;99.90;;;;;;5053048;28;19927;-75
2022/01/21 06:22:59;;;;;;;;;;;1.00;99.90;;;;;;5053397;28;19921;-76
2022/01/21 06:25:25;;;;;;;;;;;0.90;99.90;;;;;;5053420;28;19920;-76
2022/01/21 06:27:51;;;;;;;;;;;1.00;99.90;;;;;;5053124;28;19920;-76
2022/01/21 06:30:17;;;;;;;;;;;1.90;99.90;;;;;;5053016;28;19921;-76
2022/01/21 06:32:42;;;;;;;;;;;1.10;99.90;;;;;;5052983;28;19962;-76
2022/01/21 06:35:08;;;;;;;;;;;1.00;99.90;;;;;;5052987;28;19921;-78
2022/01/21 06:37:34;;;;;;;;;;;1.00;99.90;;;;;;5053305;28;20014;-76
2022/01/21 06:40:00;;;;;;;;;;;1.00;99.90;;;;;;5053196;28;20028;-76
2022/01/21 06:42:27;;;;;;;;;;;1.00;99.90;;;;;;5053107;28;19967;-78
2022/01/21 06:44:53;;;;;;;;;;;3.00;99.90;;;;;;5056035;28;20450;-78
2022/01/21 06:47:19;;;;;;;;;;;1.00;99.90;;;;;;5056593;28;20016;-80
2022/01/21 06:49:46;;;;;;;;;;;1.00;99.90;;;;;;5056561;28;20395;-76
2022/01/21 06:52:11;;;;;;;;;;;1.00;99.90;;;;;;5089603;28;19987;-78
2022/01/21 06:54:37;;;;;;;;;;;1.00;99.90;;;;;;5056614;28;19924;-76
2022/01/21 06:57:02;;;;;;;;;;;0.50;99.90;;;;;;5056542;28;19921;-77
2022/01/21 06:59:28;;;;;;;;;;;1.00;99.90;;;;;;5056362;28;19943;-76
2022/01/21 07:01:53;;;;;;;;;;;1.30;99.90;;;;;;5056317;28;19966;-76
2022/01/21 07:04:19;;;;;;;;;;;1.00;99.90;;;;;;5056338;28;19924;-76
2022/01/21 07:06:44;;;;;;;;;;;2.20;99.90;;;;;;5056092;28;19927;-76
2022/01/21 07:09:10;;;;;;;;;;;1.80;99.90;;;;;;5089001;28;19932;-79
2022/01/21 07:11:36;;;;;;;;;;;1.30;99.90;;;;;;5056311;28;20304;-76
2022/01/21 07:14:01;;;;;;;;;;;1.00;99.90;;;;;;5056051;28;19921;-76
2022/01/21 07:16:27;;;;;;;;;;;1.00;99.90;;;;;;5056124;28;19970;-76
2022/01/21 07:18:53;;;;;;;;;;;1.80;99.90;;;;;;5056122;28;20333;-76
2022/01/21 07:21:18;;;;;;;;;;;1.00;99.90;;;;;;5088620;28;19928;-76
2022/01/21 07:23:44;;;;;;;;;;;2.60;99.90;;;;;;5056181;28;20360;-75
2022/01/21 07:26:12;;;;;;;;;;;1.30;99.90;;;;;;5056027;28;19924;-75
2022/01/21 07:28:37;;;;;;;;;;;1.60;99.90;;;;;;5054727;28;20012;-75
2022/01/21 07:31:03;;;;;;;;;;;2.30;99.90;;;;;;5055961;28;19972;-78
2022/01/21 07:33:29;;;;;;;;;;;1.00;99.90;;;;;;5055433;28;19925;-75
2022/01/21 07:35:54;;;;;;;;;;;2.30;99.90;;;;;;5054638;28;19927;-75
2022/01/21 07:38:20;;;;;;;;;;;2.70;99.90;;;;;;5055420;28;19943;-77
2022/01/21 07:40:45;;;;;;;;;;;1.00;99.90;;;;;;5055779;28;19996;-75
2022/01/21 07:43:11;;;;;;;;;;;2.40;99.90;;;;;;5088333;28;19921;-77
2022/01/21 07:45:37;;;;;;;;;;;2.40;99.90;;;;;;5087837;28;19940;-77
2022/01/21 07:48:03;;;;;;;;;;;0.60;99.90;;;;;;5054349;28;19921;-75
2022/01/21 07:50:29;;;;;;;;;;;1.00;99.90;;;;;;5055654;28;19928;-78
2022/01/21 07:52:54;;;;;;;;;;;1.10;99.90;;;;;;5055285;28;20405;-75
2022/01/21 07:55:20;;;;;;;;;;;2.70;99.90;;;;;;5054301;28;19920;-75
2022/01/21 07:57:46;;;;;;;;;;;1.10;99.90;;;;;;5055160;28;19927;-77
2022/01/21 08:00:12;;;;;;;;;;;2.40;99.90;;;;;;5055116;28;19925;-76
2022/01/21 08:02:38;;;;;;;;;;;1.20;99.90;;;;;;5055438;28;19925;-75
2022/01/21 08:05:05;;;;;;;;;;;1.20;99.90;;;;;;5055242;28;20364;-78
2022/01/21 08:07:31;;;;;;;;;;;1.20;99.90;;;;;;5087410;28;19920;-75
2022/01/21 08:09:56;;;;;;;;;;;2.10;99.90;;;;;;5055321;28;19921;-76
2022/01/21 08:12:22;;;;;;;;;;;2.90;99.90;;;;;;5055020;28;19921;-76
2022/01/21 08:14:47;;;;;;;;;;;2.40;99.90;;;;;;5054917;28;19931;-78
2022/01/21 08:17:13;;;;;;;;;;;1.20;99.90;;;;;;5054689;28;19921;-77
2022/01/21 08:19:39;;;;;;;;;;;2.50;99.90;;;;;;5053869;28;19920;-77
2022/01/21 08:22:04;;;;;;;;;;;1.20;99.90;;;;;;5053879;28;19971;-76
2022/01/21 08:24:30;;;;;;;;;;;2.60;99.90;;;;;;5087249;28;20043;-75
2022/01/21 08:26:56;;;;;;;;;;;2.70;99.90;;;;;;5054764;28;19935;-76
2022/01/21 08:29:21;;;;;;;;;;;1.20;99.90;;;;;;5054425;28;19928;-75
2022/01/21 08:31:47;;;;;;;;;;;1.30;99.90;;;;;;5054569;28;19936;-77
2022/01/21 08:34:13;;;;;;;;;;;1.30;99.90;;;;;;5054562;28;19921;-76
2022/01/21 08:36:39;;;;;;;;;;;1.30;99.90;;;;;;5053431;28;19927;-78
2022/01/21 08:39:04;;;;;;;;;;;3.40;99.90;;;;;;5054404;28;20019;-76
2022/01/21 08:41:30;;;;;;;;;;;1.40;99.90;;;;;;5054565;28;19920;-75
2022/01/21 08:43:56;;;;;;;;;;;0.60;99.90;;;;;;5053254;28;19921;-76
2022/01/21 08:46:22;;;;;;;;;;;2.00;99.90;;;;;;5054384;28;19927;-76
2022/01/21 08:48:47;;;;;;;;;;;3.20;99.90;;;;;;5054334;28;20343;-76
2022/01/21 08:51:19;;;;;;;;;;;2.70;99.90;;;;;;5054262;28;20026;-76
2022/01/21 08:53:46;;;;;;;;;;;1.50;99.90;;;;;;5054096;28;19921;-75
2022/01/21 08:56:13;;;;;;;;;;;3.00;99.90;;;;;;5054128;28;20355;-79
2022/01/21 08:58:39;;;;;;;;;;;2.50;99.90;;;;;;5053171;28;19921;-78
2022/01/21 09:01:05;;;;;;;;;;;2.70;99.90;;;;;;5053933;28;20368;-77
2022/01/21 09:03:31;;;;;;;;;;;2.10;99.90;;;;;;5052956;28;19920;-78
2022/01/21 09:05:57;;;;;;;;;;;1.70;99.90;;;;;;5053469;28;20303;-76
2022/01/21 09:08:24;;;;;;;;;;;3.40;99.90;;;;;;5069568;28;19920;-79
2022/01/21 09:10:53;;;;;;;;;;;1.80;99.90;;;;;;5054079;28;19924;-78
2022/01/21 09:13:19;;;;;;;;;;;1.90;99.90;;;;;;5054087;28;19921;-75
2022/01/21 09:15:45;;;;;;;;;;;2.00;99.90;;;;;;5053973;28;20270;-76
2022/01/21 09:18:10;;;;;;;;;;;2.30;99.90;;;;;;5053899;28;19932;-75
2022/01/21 09:20:37;;;;;;;;;;;2.00;99.90;;;;;;5053798;28;20383;-74
2022/01/21 09:23:03;;;;;;;;;;;1.80;99.90;;;;;;5053682;28;19921;-77
2022/01/21 09:25:28;;;;;;;;;;;2.40;99.90;;;;;;5053644;28;19966;-76
2022/01/21 09:27:54;;;;;;;;;;;2.10;99.90;;;;;;5053699;28;19971;-75
2022/01/21 09:30:20;;;;;;;;;;;3.80;99.90;;;;;;5052076;28;19927;-76
2022/01/21 09:32:45;;;;;;;;;;;2.30;99.90;;;;;;5052744;28;19994;-75
2022/01/21 09:35:11;;;;;;;;;;;4.10;99.90;;;;;;5086301;28;20272;-76
2022/01/21 09:37:37;;;;;;;;;;;2.90;99.90;;;;;;5052589;28;19932;-74
2022/01/21 09:40:06;;;;;;;;;;;4.50;99.90;;;;;;5053455;28;19967;-77
2022/01/21 09:42:33;;;;;;;;;;;2.50;99.90;;;;;;5053396;28;20332;-75
2022/01/21 09:44:59;;;;;;;;;;;3.50;99.90;;;;;;5052386;28;19966;-75
2022/01/21 09:47:25;;;;;;;;;;;2.60;99.90;;;;;;5053552;28;20334;-75
2022/01/21 09:49:51;;;;;;;;;;;3.00;99.90;;;;;;5053528;28;19921;-75
2022/01/21 09:52:18;;;;;;;;;;;3.70;99.90;;;;;;5053411;28;19921;-75
2022/01/21 09:54:47;;;;;;;;;;;3.00;99.90;;;;;;5053390;28;19928;-75
2022/01/21 09:57:23;;;;;;;;;;;4.20;99.90;;;;;;5053454;28;19982;-75
2022/01/21 09:59:52;;;;;;;;;;;2.90;99.90;;;;;;5053322;28;19952;-76
2022/01/21 10:02:19;;;;;;;;;;;2.90;99.90;;;;;;5053408;28;19925;-75
2022/01/21 10:04:49;;;;;;;;;;;3.70;99.90;;;;;;5053328;28;20081;-75
2022/01/21 10:07:17;;;;;;;;;;;3.60;99.90;;;;;;5053191;28;19927;-75
2022/01/21 10:09:43;;;;;;;;;;;4.70;99.90;;;;;;5085829;28;20431;-76
2022/01/21 10:12:09;;;;;;;;;;;3.10;99.90;;;;;;5053434;28;19921;-75
2022/01/21 10:14:35;;;;;;;;;;;3.10;99.90;;;;;;5053360;28;20368;-75
2022/01/21 10:17:01;;;;;;;;;;;4.30;99.90;;;;;;5053136;28;19920;-74
2022/01/21 10:19:28;;;;;;;;;;;3.20;99.90;;;;;;5088504;28;19925;-76
2022/01/21 10:21:58;;;;;;;;;;;4.00;99.90;;;;;;5057035;28;19921;-75
2022/01/21 10:24:24;;;;;;;;;;;2.70;99.90;;;;;;5057199;28;19929;-77
2022/01/21 10:26:51;;;;;;;;;;;3.30;99.90;;;;;;5056039;28;20007;-77
2022/01/21 10:29:17;;;;;;;;;;;3.40;99.90;;;;;;5056424;28;19929;-75
2022/01/21 10:31:51;;;;;;;;;;;4.90;99.90;;;;;;5056353;28;19927;-75
2022/01/21 10:34:23;;;;;;;;;;;3.40;99.90;;;;;;5055636;28;20303;-77
2022/01/21 10:36:54;;;;;;;;;;;3.90;99.90;;;;;;5089409;28;19921;-74
2022/01/21 10:39:29;;;;;;;;;;;4.00;99.90;;;;;;5056926;28;19968;-75
2022/01/21 10:41:57;;;;;;;;;;;3.60;99.90;;;;;;5056781;28;19999;-75
2022/01/21 10:44:25;;;;;;;;;;;3.70;99.90;;;;;;5056820;28;19928;-75
2022/01/21 10:47:01;;;;;;;;;;;3.80;99.90;;;;;;5055702;28;19927;-75
2022/01/21 10:49:27;;;;;;;;;;;3.90;99.90;;;;;;5056596;28;19920;-78
2022/01/21 10:51:55;;;;;;;;;;;3.90;99.90;;;;;;5056541;28;19927;-77
2022/01/21 10:54:22;;;;;;;;;;;4.00;99.90;;;;;;5056349;28;19920;-75
2022/01/21 10:57:17;;;;;;;;;;;3.90;99.90;;;;;;5056231;28;19921;-75
2022/01/21 10:59:45;;;;;;;;;;;4.00;99.90;;;;;;5033757;28;19921;-75
2022/01/21 11:02:12;;;;;;;;;;;4.10;99.90;;;;;;5033709;28;19940;-75
2022/01/21 11:04:44;;;;;;;;;;;5.10;99.90;;;;;;5034067;28;19925;-74
2022/01/21 11:07:15;;;;;;;;;;;4.20;99.90;;;;;;5017683;28;19921;-76
2022/01/21 11:09:41;;;;;;;;;;;4.20;99.90;;;;;;5033860;28;19921;-75
2022/01/21 11:12:10;;;;;;;;;;;4.30;99.90;;;;;;5033881;28;19955;-74
2022/01/21 11:14:37;;;;;;;;;;;4.30;99.90;;;;;;5017469;28;20323;-75
2022/01/21 11:17:15;;;;;;;;;;;4.40;99.90;;;;;;5033644;28;20334;-75
2022/01/21 11:20:00;;;;;;;;;;;4.40;99.90;;;;;;5017292;28;19921;-76
2022/01/21 11:22:26;;;;;;;;;;;4.50;99.90;;;;;;5033622;28;19944;-74
2022/01/21 11:24:55;;;;;;;;;;;4.50;99.90;;;;;;5033551;28;19928;-74
2022/01/21 11:27:21;;;;;;;;;;;4.50;99.90;;;;;;5033362;28;19921;-80
2022/01/21 11:29:48;;;;;;;;;;;4.50;99.90;;;;;;5016552;28;19971;-78
2022/01/21 11:32:15;;;;;;;;;;;4.50;99.90;;;;;;5000409;28;20004;-78
2022/01/21 11:34:42;;;;;;;;;;;4.50;99.90;;;;;;5033399;28;20007;-75
2022/01/21 11:37:08;;;;;;;;;;;4.60;99.90;;;;;;5053833;28;20331;-80
2022/01/21 11:39:35;;;;;;;;;;;4.60;99.90;;;;;;5055383;28;20307;-77
2022/01/21 11:42:03;;;;;;;;;;;5.10;99.90;;;;;;5055512;28;19921;-75
2022/01/21 11:44:30;;;;;;;;;;;4.70;99.90;;;;;;5055430;28;19921;-75
2022/01/21 11:49:39;;;;;;;;;;;4.80;99.90;;;;;;5055317;28;19924;-76
2022/01/21 11:52:18;;;;;;;;;;;4.90;99.90;;;;;;5055184;28;19927;-75
2022/01/21 11:54:45;;;;;;;;;;;4.80;99.90;;;;;;5087695;28;19932;-75
2022/01/21 11:57:12;;;;;;;;;;;4.90;99.90;;;;;;5055149;28;20311;-79
2022/01/21 12:02:26;;;;;;;;;;;4.80;99.90;;;;;;5054940;28;19920;-79
2022/01/21 12:04:53;;;;;;;;;;;4.90;99.90;;;;;;5054970;28;19920;-76
2022/01/21 12:07:37;;;;;;;;;;;4.80;99.90;;;;;;5055111;28;19925;-76
2022/01/21 12:10:07;;;;;;;;;;;4.80;99.90;;;;;;5055217;28;20299;-75
2022/01/21 12:12:54;;;;;;;;;;;4.90;99.90;;;;;;5055013;28;19921;-75
2022/01/21 12:18:53;;;;;;;;;;;4.90;99.90;;;;;;5032737;28;20419;-76
2022/01/21 12:21:28;;;;;;;;;;;4.90;99.90;;;;;;5016225;28;20023;-74
2022/01/21 12:23:54;;;;;;;;;;;4.90;99.90;;;;;;5032510;28;19991;-74
2022/01/21 12:26:21;;;;;;;;;;;5.40;99.90;;;;;;5032532;28;19921;-78
2022/01/21 12:29:07;;;;;;;;;;;6.10;99.90;;;;;;5032209;28;19924;-76
2022/01/21 12:31:45;;;;;;;;;;;5.00;99.90;;;;;;5025426;28;20367;-79
2022/01/21 12:34:15;;;;;;;;;;;5.00;99.90;;;;;;5032509;28;19925;-75
2022/01/21 12:37:00;;;;;;;;;;;5.40;99.90;;;;;;5032433;28;19925;-75
2022/01/21 12:39:36;;;;;;;;;;;5.10;99.90;;;;;;5032485;28;19921;-75
2022/01/21 12:42:17;;;;;;;;;;;5.20;99.90;;;;;;5031639;28;19920;-75
2022/01/21 12:44:42;;;;;;;;;;;5.20;99.90;;;;;;5032334;28;19921;-75
2022/01/21 12:47:27;;;;;;;;;;;5.30;99.90;;;;;;5031676;28;20292;-72
2022/01/21 12:49:54;;;;;;;;;;;5.30;99.90;;;;;;5032113;28;19921;-71
2022/01/21 12:52:33;;;;;;;;;;;6.20;99.90;;;;;;5015985;28;19921;-72
2022/01/21 12:57:43;;;;;;;;;;;5.50;99.90;;;;;;5054272;28;19960;-72
2022/01/21 13:00:10;;;;;;;;;;;5.60;99.90;;;;;;5086800;28;19921;-74
2022/01/21 13:02:37;;;;;;;;;;;5.60;99.90;;;;;;5054025;28;19920;-76
2022/01/21 13:05:02;;;;;;;;;;;5.70;99.90;;;;;;5054075;28;20287;-76
2022/01/21 13:07:42;;;;;;;;;;;5.80;99.90;;;;;;5053846;28;19920;-74
2022/01/21 13:10:20;;;;;;;;;;;5.70;99.90;;;;;;5054174;28;20087;-74
2022/01/21 13:15:37;;;;;;;;;;;5.80;99.90;;;;;;5053841;28;19971;-78
2022/01/21 13:18:03;;;;;;;;;;;5.80;99.90;;;;;;5052451;28;20019;-75
2022/01/21 13:20:30;;;;;;;;;;;5.80;99.90;;;;;;5053756;28;19928;-75
2022/01/21 13:22:56;;;;;;;;;;;5.80;99.90;;;;;;5053005;28;19921;-75
2022/01/21 13:25:22;;;;;;;;;;;5.80;99.90;;;;;;5052909;28;19958;-75
2022/01/21 13:27:48;;;;;;;;;;;6.00;99.90;;;;;;5053680;28;19924;-76
2022/01/21 13:30:15;;;;;;;;;;;6.30;99.90;;;;;;5053306;28;19920;-75
2022/01/21 13:32:42;;;;;;;;;;;5.80;99.90;;;;;;5053487;28;20290;-76
2022/01/21 13:35:10;;;;;;;;;;;5.90;99.90;;;;;;5053486;28;20293;-74
2022/01/21 13:37:41;;;;;;;;;;;5.90;99.90;;;;;;5086673;28;19928;-77
2022/01/21 13:40:08;;;;;;;;;;;5.90;99.90;;;;;;5053638;28;19974;-76
2022/01/21 13:42:36;;;;;;;;;;;5.90;99.90;;;;;;5053594;28;19924;-75
2022/01/21 13:45:08;;;;;;;;;;;5.90;99.90;;;;;;5053552;28;19966;-73
2022/01/21 13:47:54;;;;;;;;;;;6.80;99.90;;;;;;5052833;28;19924;-76
2022/01/21 13:50:22;;;;;;;;;;;6.00;99.90;;;;;;5053118;28;20291;-75
2022/01/21 13:52:52;;;;;;;;;;;5.90;99.90;;;;;;5055253;28;19924;-76
2022/01/21 13:55:25;;;;;;;;;;;6.00;99.90;;;;;;5057603;28;19968;-81
2022/01/21 13:57:51;;;;;;;;;;;6.00;99.90;;;;;;5089755;28;20398;-76
2022/01/21 14:00:35;;;;;;;;;;;6.00;99.90;;;;;;5057315;28;19979;-80
2022/01/21 14:03:25;;;;;;;;;;;6.10;99.90;;;;;;5057539;28;19920;-78
2022/01/21 14:05:57;;;;;;;;;;;6.10;99.90;;;;;;5035373;28;20343;-77
2022/01/21 14:08:25;;;;;;;;;;;6.10;99.90;;;;;;5035238;28;19948;-77
2022/01/21 14:10:54;;;;;;;;;;;6.00;99.90;;;;;;5035202;28;19921;-79
2022/01/21 14:13:21;;;;;;;;;;;6.00;99.90;;;;;;5018809;28;19975;-77
2022/01/21 14:15:46;;;;;;;;;;;6.00;99.90;;;;;;5035147;28;19921;-77
2022/01/21 14:18:12;;;;;;;;;;;6.40;99.90;;;;;;5034451;28;20040;-78
2022/01/21 14:20:39;;;;;;;;;;;6.00;99.90;;;;;;5018511;28;19925;-77
2022/01/21 14:23:05;;;;;;;;;;;6.00;99.90;;;;;;5018487;28;19921;-79
2022/01/21 14:25:31;;;;;;;;;;;6.00;99.90;;;;;;5034946;28;20254;-77
2022/01/21 14:27:57;;;;;;;;;;;6.00;99.90;;;;;;5018215;28;20016;-78
2022/01/21 14:30:23;;;;;;;;;;;5.90;99.90;;;;;;5034478;28;19921;-78
2022/01/21 14:32:53;;;;;;;;;;;5.90;99.90;;;;;;5034758;28;19921;-78
2022/01/21 14:35:29;;;;;;;;;;;5.90;99.90;;;;;;5034681;28;19967;-77
2022/01/21 14:38:01;;;;;;;;;;;5.90;99.90;;;;;;5034725;28;19921;-77
2022/01/21 14:40:28;;;;;;;;;;;5.90;99.90;;;;;;5034694;28;19927;-80
2022/01/21 14:43:09;;;;;;;;;;;6.80;99.90;;;;;;5046426;28;19984;-77
2022/01/21 14:45:36;;;;;;;;;;;5.90;99.90;;;;;;5056780;28;19935;-78
2022/01/21 14:48:13;;;;;;;;;;;5.90;99.90;;;;;;5088608;28;20363;-78
2022/01/21 14:50:41;;;;;;;;;;;5.90;99.90;;;;;;5071979;28;19974;-78
2022/01/21 14:53:07;;;;;;;;;;;6.00;99.90;;;;;;5056745;28;19921;-78
2022/01/21 14:55:34;;;;;;;;;;;5.90;99.90;;;;;;5056904;28;19920;-76
2022/01/21 14:58:02;;;;;;;;;;;6.00;99.90;;;;;;5056404;28;19974;-77
2022/01/21 15:00:32;;;;;;;;;;;6.00;99.90;;;;;;5088883;28;19924;-76
2022/01/21 15:03:02;;;;;;;;;;;6.00;99.90;;;;;;5056249;28;19925;-75
2022/01/21 15:05:29;;;;;;;;;;;6.00;99.90;;;;;;5087841;28;20303;-77
2022/01/21 15:07:55;;;;;;;;;;;6.00;99.90;;;;;;5056363;28;19928;-76
2022/01/21 15:10:45;;;;;;;;;;;6.00;99.90;;;;;;5071696;28;19927;-78
2022/01/21 15:16:09;;;;;;;;;;;6.00;99.90;;;;;;5055323;28;19924;-77
2022/01/21 15:18:35;;;;;;;;;;;6.00;99.90;;;;;;5056101;28;20007;-78
2022/01/21 15:21:01;;;;;;;;;;;7.10;99.90;;;;;;5056126;28;19971;-80
2022/01/21 15:23:28;;;;;;;;;;;6.00;99.90;;;;;;5056091;28;19924;-76
2022/01/21 15:25:54;;;;;;;;;;;6.00;99.90;;;;;;5055861;28;19968;-76
2022/01/21 15:28:21;;;;;;;;;;;6.00;99.90;;;;;;5088038;28;19963;-77
2022/01/21 15:30:47;;;;;;;;;;;6.10;99.90;;;;;;5055574;28;19978;-79
2022/01/21 15:33:13;;;;;;;;;;;6.00;99.90;;;;;;5088447;28;19920;-79